sensor_id;sensor_type;location;lat;lon;timestamp;temperature;humidity
37446;DHT22;23307;51.136;14.942;2023-03-19T00:01:03;11.20;72.30
37446;DHT22;23307;51.136;14.942;2023-03-19T00:03:28;11.20;72.10
37446;DHT22;23307;51.136;14.942;2023-03-19T00:05:54;11.20;71.80
37446;DHT22;23307;51.136;14.942;2023-03-19T00:08:20;11.20;71.70
37446;DHT22;23307;51.136;14.942;2023-03-19T00:10:47;11.20;71.60
37446;DHT22;23307;51.136;14.942;2023-03-19T00:13:12;11.20;71.50
37446;DHT22;23307;51.136;14.942;2023-03-19T00:15:38;11.20;71.40
37446;DHT22;23307;51.136;14.942;2023-03-19T00:18:03;11.20;71.10
37446;DHT22;23307;51.136;14.942;2023-03-19T00:20:30;11.20;71.80
37446;DHT22;23307;51.136;14.942;2023-03-19T00:22:56;11.20;70.70
37446;DHT22;23307;51.136;14.942;2023-03-19T00:25:22;11.10;70.70
37446;DHT22;23307;51.136;14.942;2023-03-19T00:27:47;11.10;70.70
37446;DHT22;23307;51.136;14.942;2023-03-19T00:30:13;11.20;70.50
37446;DHT22;23307;51.136;14.942;2023-03-19T00:32:39;11.10;70.20
37446;DHT22;23307;51.136;14.942;2023-03-19T00:35:06;11.10;70.10
37446;DHT22;23307;51.136;14.942;2023-03-19T00:37:33;11.20;70.00
37446;DHT22;23307;51.136;14.942;2023-03-19T00:39:58;11.20;69.80
37446;DHT22;23307;51.136;14.942;2023-03-19T00:42:24;11.20;69.70
37446;DHT22;23307;51.136;14.942;2023-03-19T00:44:49;11.10;69.70
37446;DHT22;23307;51.136;14.942;2023-03-19T00:47:15;11.10;69.60
37446;DHT22;23307;51.136;14.942;2023-03-19T00:49:41;11.10;69.40
37446;DHT22;23307;51.136;14.942;2023-03-19T00:52:06;11.10;69.10
37446;DHT22;23307;51.136;14.942;2023-03-19T00:54:32;11.20;69.20
37446;DHT22;23307;51.136;14.942;2023-03-19T00:56:58;11.10;69.10
37446;DHT22;23307;51.136;14.942;2023-03-19T00:59:24;11.10;68.90
37446;DHT22;23307;51.136;14.942;2023-03-19T01:01:50;11.10;68.80
37446;DHT22;23307;51.136;14.942;2023-03-19T01:04:16;11.10;68.70
37446;DHT22;23307;51.136;14.942;2023-03-19T01:06:42;11.10;68.60
37446;DHT22;23307;51.136;14.942;2023-03-19T01:09:08;11.10;68.50
37446;DHT22;23307;51.136;14.942;2023-03-19T01:11:34;11.10;68.50
37446;DHT22;23307;51.136;14.942;2023-03-19T01:14:00;11.10;68.20
37446;DHT22;23307;51.136;14.942;2023-03-19T01:16:26;11.10;68.10
37446;DHT22;23307;51.136;14.942;2023-03-19T01:18:52;11.10;67.90
37446;DHT22;23307;51.136;14.942;2023-03-19T01:21:17;11.10;67.60
37446;DHT22;23307;51.136;14.942;2023-03-19T01:23:43;11.10;67.60
37446;DHT22;23307;51.136;14.942;2023-03-19T01:26:09;11.10;67.40
37446;DHT22;23307;51.136;14.942;2023-03-19T01:28:34;11.10;67.40
37446;DHT22;23307;51.136;14.942;2023-03-19T01:31:04;11.10;67.40
37446;DHT22;23307;51.136;14.942;2023-03-19T01:33:30;11.10;67.30
37446;DHT22;23307;51.136;14.942;2023-03-19T01:35:55;11.10;67.30
37446;DHT22;23307;51.136;14.942;2023-03-19T01:38:22;11.10;67.00
37446;DHT22;23307;51.136;14.942;2023-03-19T01:40:48;11.10;67.00
37446;DHT22;23307;51.136;14.942;2023-03-19T01:43:21;11.10;67.20
37446;DHT22;23307;51.136;14.942;2023-03-19T01:45:50;11.10;67.10
37446;DHT22;23307;51.136;14.942;2023-03-19T01:50:54;11.10;66.90
37446;DHT22;23307;51.136;14.942;2023-03-19T01:53:28;11.10;66.80
37446;DHT22;23307;51.136;14.942;2023-03-19T01:55:58;11.10;67.00
37446;DHT22;23307;51.136;14.942;2023-03-19T01:58:26;11.10;67.00
37446;DHT22;23307;51.136;14.942;2023-03-19T02:00:53;11.10;67.10
37446;DHT22;23307;51.136;14.942;2023-03-19T02:03:19;11.10;67.10
37446;DHT22;23307;51.136;14.942;2023-03-19T02:05:45;11.10;67.10
37446;DHT22;23307;51.136;14.942;2023-03-19T02:08:14;11.10;67.10
37446;DHT22;23307;51.136;14.942;2023-03-19T02:10:42;11.00;67.00
37446;DHT22;23307;51.136;14.942;2023-03-19T02:13:09;11.00;67.10
37446;DHT22;23307;51.136;14.942;2023-03-19T02:15:34;11.00;67.10
37446;DHT22;23307;51.136;14.942;2023-03-19T02:18:00;11.00;67.00
37446;DHT22;23307;51.136;14.942;2023-03-19T02:20:57;11.00;67.00
37446;DHT22;23307;51.136;14.942;2023-03-19T02:26:11;10.90;67.20
37446;DHT22;23307;51.136;14.942;2023-03-19T02:28:40;10.90;67.10
37446;DHT22;23307;51.136;14.942;2023-03-19T02:31:07;11.00;66.90
37446;DHT22;23307;51.136;14.942;2023-03-19T02:33:33;11.00;66.70
37446;DHT22;23307;51.136;14.942;2023-03-19T02:35:59;11.00;66.50
37446;DHT22;23307;51.136;14.942;2023-03-19T02:38:26;11.00;66.40
37446;DHT22;23307;51.136;14.942;2023-03-19T02:40:59;11.00;66.50
37446;DHT22;23307;51.136;14.942;2023-03-19T02:43:26;11.00;66.60
37446;DHT22;23307;51.136;14.942;2023-03-19T02:45:53;11.00;66.50
37446;DHT22;23307;51.136;14.942;2023-03-19T02:48:18;11.00;66.50
37446;DHT22;23307;51.136;14.942;2023-03-19T02:50:44;11.00;66.60
37446;DHT22;23307;51.136;14.942;2023-03-19T02:53:10;11.00;66.50
37446;DHT22;23307;51.136;14.942;2023-03-19T02:55:36;11.00;66.70
37446;DHT22;23307;51.136;14.942;2023-03-19T02:58:02;10.90;66.70
37446;DHT22;23307;51.136;14.942;2023-03-19T03:00:27;10.90;66.70
37446;DHT22;23307;51.136;14.942;2023-03-19T03:02:55;10.90;66.60
37446;DHT22;23307;51.136;14.942;2023-03-19T03:05:21;10.90;66.70
37446;DHT22;23307;51.136;14.942;2023-03-19T03:07:47;10.90;66.60
37446;DHT22;23307;51.136;14.942;2023-03-19T03:10:14;10.90;66.80
37446;DHT22;23307;51.136;14.942;2023-03-19T03:12:40;10.90;66.90
37446;DHT22;23307;51.136;14.942;2023-03-19T03:15:06;10.80;66.90
37446;DHT22;23307;51.136;14.942;2023-03-19T03:17:35;10.80;67.00
37446;DHT22;23307;51.136;14.942;2023-03-19T03:20:01;10.80;66.90
37446;DHT22;23307;51.136;14.942;2023-03-19T03:22:26;10.90;66.80
37446;DHT22;23307;51.136;14.942;2023-03-19T03:24:52;10.80;66.80
37446;DHT22;23307;51.136;14.942;2023-03-19T03:27:17;10.80;66.80
37446;DHT22;23307;51.136;14.942;2023-03-19T03:29:43;10.80;66.80
37446;DHT22;23307;51.136;14.942;2023-03-19T03:32:08;10.80;66.90
37446;DHT22;23307;51.136;14.942;2023-03-19T03:34:34;10.80;66.90
37446;DHT22;23307;51.136;14.942;2023-03-19T03:36:59;10.80;66.90
37446;DHT22;23307;51.136;14.942;2023-03-19T03:39:25;10.80;66.80
37446;DHT22;23307;51.136;14.942;2023-03-19T03:41:50;10.80;66.70
37446;DHT22;23307;51.136;14.942;2023-03-19T03:44:16;10.80;66.80
37446;DHT22;23307;51.136;14.942;2023-03-19T03:46:42;10.80;66.70
37446;DHT22;23307;51.136;14.942;2023-03-19T03:49:08;10.90;66.70
37446;DHT22;23307;51.136;14.942;2023-03-19T03:51:34;10.80;66.60
37446;DHT22;23307;51.136;14.942;2023-03-19T03:54:00;10.80;66.80
37446;DHT22;23307;51.136;14.942;2023-03-19T03:56:25;10.90;66.80
37446;DHT22;23307;51.136;14.942;2023-03-19T03:58:51;10.80;66.80
37446;DHT22;23307;51.136;14.942;2023-03-19T04:01:17;10.90;66.90
37446;DHT22;23307;51.136;14.942;2023-03-19T04:03:43;10.80;66.70
37446;DHT22;23307;51.136;14.942;2023-03-19T04:06:16;10.80;66.60
37446;DHT22;23307;51.136;14.942;2023-03-19T04:08:42;10.80;66.50
37446;DHT22;23307;51.136;14.942;2023-03-19T04:11:08;10.80;66.60
37446;DHT22;23307;51.136;14.942;2023-03-19T04:13:34;10.80;66.60
37446;DHT22;23307;51.136;14.942;2023-03-19T04:16:08;10.80;66.50
37446;DHT22;23307;51.136;14.942;2023-03-19T04:18:35;10.80;66.60
37446;DHT22;23307;51.136;14.942;2023-03-19T04:21:01;10.80;66.60
37446;DHT22;23307;51.136;14.942;2023-03-19T04:23:28;10.80;66.60
37446;DHT22;23307;51.136;14.942;2023-03-19T04:25:58;10.80;66.40
37446;DHT22;23307;51.136;14.942;2023-03-19T04:28:24;10.80;66.40
37446;DHT22;23307;51.136;14.942;2023-03-19T04:30:49;10.80;66.40
37446;DHT22;23307;51.136;14.942;2023-03-19T04:33:15;10.80;66.40
37446;DHT22;23307;51.136;14.942;2023-03-19T04:35:41;10.80;66.40
37446;DHT22;23307;51.136;14.942;2023-03-19T04:38:07;10.70;66.50
37446;DHT22;23307;51.136;14.942;2023-03-19T04:40:33;10.80;66.60
37446;DHT22;23307;51.136;14.942;2023-03-19T04:42:58;10.80;66.40
37446;DHT22;23307;51.136;14.942;2023-03-19T04:45:24;10.80;66.50
37446;DHT22;23307;51.136;14.942;2023-03-19T04:47:50;10.70;66.40
37446;DHT22;23307;51.136;14.942;2023-03-19T04:50:15;10.70;66.50
37446;DHT22;23307;51.136;14.942;2023-03-19T04:52:41;10.70;66.40
37446;DHT22;23307;51.136;14.942;2023-03-19T04:55:07;10.70;66.60
37446;DHT22;23307;51.136;14.942;2023-03-19T04:57:33;10.70;66.40
37446;DHT22;23307;51.136;14.942;2023-03-19T04:59:58;10.70;66.40
37446;DHT22;23307;51.136;14.942;2023-03-19T05:02:25;10.70;66.60
37446;DHT22;23307;51.136;14.942;2023-03-19T05:04:51;10.70;66.70
37446;DHT22;23307;51.136;14.942;2023-03-19T05:07:16;10.70;66.70
37446;DHT22;23307;51.136;14.942;2023-03-19T05:09:42;10.70;66.70
37446;DHT22;23307;51.136;14.942;2023-03-19T05:12:09;10.70;66.50
37446;DHT22;23307;51.136;14.942;2023-03-19T05:14:34;10.70;66.40
37446;DHT22;23307;51.136;14.942;2023-03-19T05:17:00;10.70;66.50
37446;DHT22;23307;51.136;14.942;2023-03-19T05:19:26;10.70;66.40
37446;DHT22;23307;51.136;14.942;2023-03-19T05:21:51;10.60;66.60
37446;DHT22;23307;51.136;14.942;2023-03-19T05:24:16;10.60;67.40
37446;DHT22;23307;51.136;14.942;2023-03-19T05:26:42;10.60;66.50
37446;DHT22;23307;51.136;14.942;2023-03-19T05:29:08;10.60;66.50
37446;DHT22;23307;51.136;14.942;2023-03-19T05:31:36;10.60;66.50
37446;DHT22;23307;51.136;14.942;2023-03-19T05:34:02;10.60;66.70
37446;DHT22;23307;51.136;14.942;2023-03-19T05:36:27;10.60;66.70
37446;DHT22;23307;51.136;14.942;2023-03-19T05:38:53;10.60;66.90
37446;DHT22;23307;51.136;14.942;2023-03-19T05:41:18;10.70;66.90
37446;DHT22;23307;51.136;14.942;2023-03-19T05:43:44;10.60;66.60
37446;DHT22;23307;51.136;14.942;2023-03-19T05:46:09;10.70;66.70
37446;DHT22;23307;51.136;14.942;2023-03-19T05:48:35;10.60;66.70
37446;DHT22;23307;51.136;14.942;2023-03-19T05:51:02;10.70;66.60
37446;DHT22;23307;51.136;14.942;2023-03-19T05:53:27;10.60;66.80
37446;DHT22;23307;51.136;14.942;2023-03-19T05:55:53;10.60;66.90
37446;DHT22;23307;51.136;14.942;2023-03-19T05:58:18;10.60;66.90
37446;DHT22;23307;51.136;14.942;2023-03-19T06:00:43;10.60;67.00
37446;DHT22;23307;51.136;14.942;2023-03-19T06:03:09;10.60;66.90
37446;DHT22;23307;51.136;14.942;2023-03-19T06:05:35;10.60;67.20
37446;DHT22;23307;51.136;14.942;2023-03-19T06:08:00;10.60;67.20
37446;DHT22;23307;51.136;14.942;2023-03-19T06:10:26;10.50;67.30
37446;DHT22;23307;51.136;14.942;2023-03-19T06:12:51;10.60;67.40
37446;DHT22;23307;51.136;14.942;2023-03-19T06:15:17;10.60;67.40
37446;DHT22;23307;51.136;14.942;2023-03-19T06:17:42;10.60;67.40
37446;DHT22;23307;51.136;14.942;2023-03-19T06:20:10;10.70;67.50
37446;DHT22;23307;51.136;14.942;2023-03-19T06:22:35;10.70;67.60
37446;DHT22;23307;51.136;14.942;2023-03-19T06:25:01;10.70;67.30
37446;DHT22;23307;51.136;14.942;2023-03-19T06:27:26;10.80;67.50
37446;DHT22;23307;51.136;14.942;2023-03-19T06:29:52;10.80;67.60
37446;DHT22;23307;51.136;14.942;2023-03-19T06:32:17;10.70;67.60
37446;DHT22;23307;51.136;14.942;2023-03-19T06:34:43;10.70;67.60
37446;DHT22;23307;51.136;14.942;2023-03-19T06:37:09;10.80;67.70
37446;DHT22;23307;51.136;14.942;2023-03-19T06:39:34;10.80;67.60
37446;DHT22;23307;51.136;14.942;2023-03-19T06:42:00;10.80;67.70
37446;DHT22;23307;51.136;14.942;2023-03-19T06:44:25;10.80;67.60
37446;DHT22;23307;51.136;14.942;2023-03-19T06:46:51;10.80;67.60
37446;DHT22;23307;51.136;14.942;2023-03-19T06:49:17;10.90;67.80
37446;DHT22;23307;51.136;14.942;2023-03-19T06:51:42;10.90;67.70
37446;DHT22;23307;51.136;14.942;2023-03-19T06:54:08;10.90;67.90
37446;DHT22;23307;51.136;14.942;2023-03-19T06:56:33;11.00;67.90
37446;DHT22;23307;51.136;14.942;2023-03-19T06:58:59;11.10;68.00
37446;DHT22;23307;51.136;14.942;2023-03-19T07:01:24;11.20;68.10
37446;DHT22;23307;51.136;14.942;2023-03-19T07:03:49;11.20;67.80
37446;DHT22;23307;51.136;14.942;2023-03-19T07:06:15;11.20;67.50
37446;DHT22;23307;51.136;14.942;2023-03-19T07:08:40;11.20;67.70
37446;DHT22;23307;51.136;14.942;2023-03-19T07:11:10;11.20;67.70
37446;DHT22;23307;51.136;14.942;2023-03-19T07:13:36;11.20;68.10
37446;DHT22;23307;51.136;14.942;2023-03-19T07:16:02;11.30;67.60
37446;DHT22;23307;51.136;14.942;2023-03-19T07:18:28;11.20;67.80
37446;DHT22;23307;51.136;14.942;2023-03-19T07:20:53;11.20;68.00
37446;DHT22;23307;51.136;14.942;2023-03-19T07:23:19;11.30;68.00
37446;DHT22;23307;51.136;14.942;2023-03-19T07:25:47;11.30;68.20
37446;DHT22;23307;51.136;14.942;2023-03-19T07:28:14;11.30;68.20
37446;DHT22;23307;51.136;14.942;2023-03-19T07:30:39;11.30;68.50
37446;DHT22;23307;51.136;14.942;2023-03-19T07:33:06;11.30;68.70
37446;DHT22;23307;51.136;14.942;2023-03-19T07:35:32;11.30;68.70
37446;DHT22;23307;51.136;14.942;2023-03-19T07:37:58;11.40;68.90
37446;DHT22;23307;51.136;14.942;2023-03-19T07:40:24;11.50;69.00
37446;DHT22;23307;51.136;14.942;2023-03-19T07:42:51;11.50;69.00
37446;DHT22;23307;51.136;14.942;2023-03-19T07:45:17;11.60;69.00
37446;DHT22;23307;51.136;14.942;2023-03-19T07:47:42;11.70;69.40
37446;DHT22;23307;51.136;14.942;2023-03-19T07:50:08;11.70;69.30
37446;DHT22;23307;51.136;14.942;2023-03-19T07:52:34;11.80;69.30
37446;DHT22;23307;51.136;14.942;2023-03-19T07:54:59;11.80;69.20
37446;DHT22;23307;51.136;14.942;2023-03-19T07:57:25;11.90;70.00
37446;DHT22;23307;51.136;14.942;2023-03-19T07:59:51;11.90;68.70
37446;DHT22;23307;51.136;14.942;2023-03-19T08:02:17;12.00;68.90
37446;DHT22;23307;51.136;14.942;2023-03-19T08:04:42;12.00;68.90
37446;DHT22;23307;51.136;14.942;2023-03-19T08:07:08;12.10;69.00
37446;DHT22;23307;51.136;14.942;2023-03-19T08:09:35;12.20;68.70
37446;DHT22;23307;51.136;14.942;2023-03-19T08:12:02;12.30;69.20
37446;DHT22;23307;51.136;14.942;2023-03-19T08:14:27;12.40;69.20
37446;DHT22;23307;51.136;14.942;2023-03-19T08:16:53;12.50;68.90
37446;DHT22;23307;51.136;14.942;2023-03-19T08:19:18;12.50;69.20
37446;DHT22;23307;51.136;14.942;2023-03-19T08:21:44;12.60;68.90
37446;DHT22;23307;51.136;14.942;2023-03-19T08:24:09;12.70;68.60
37446;DHT22;23307;51.136;14.942;2023-03-19T08:26:35;12.70;68.50
37446;DHT22;23307;51.136;14.942;2023-03-19T08:29:01;12.60;68.40
37446;DHT22;23307;51.136;14.942;2023-03-19T08:31:28;12.70;69.20
37446;DHT22;23307;51.136;14.942;2023-03-19T08:33:54;12.70;68.80
37446;DHT22;23307;51.136;14.942;2023-03-19T08:36:20;12.80;69.20
37446;DHT22;23307;51.136;14.942;2023-03-19T08:38:45;12.80;69.20
37446;DHT22;23307;51.136;14.942;2023-03-19T08:41:11;12.90;68.80
37446;DHT22;23307;51.136;14.942;2023-03-19T08:43:37;13.00;68.90
37446;DHT22;23307;51.136;14.942;2023-03-19T08:46:03;13.00;68.90
37446;DHT22;23307;51.136;14.942;2023-03-19T08:48:29;13.00;68.70
37446;DHT22;23307;51.136;14.942;2023-03-19T08:50:57;13.00;68.80
37446;DHT22;23307;51.136;14.942;2023-03-19T08:53:23;13.10;69.00
37446;DHT22;23307;51.136;14.942;2023-03-19T08:56:01;13.10;69.10
37446;DHT22;23307;51.136;14.942;2023-03-19T08:58:27;13.10;69.10
37446;DHT22;23307;51.136;14.942;2023-03-19T09:00:53;13.10;69.40
37446;DHT22;23307;51.136;14.942;2023-03-19T09:03:24;13.20;69.10
37446;DHT22;23307;51.136;14.942;2023-03-19T09:05:50;13.30;69.30
37446;DHT22;23307;51.136;14.942;2023-03-19T09:08:15;13.40;69.20
37446;DHT22;23307;51.136;14.942;2023-03-19T09:10:41;13.40;69.20
37446;DHT22;23307;51.136;14.942;2023-03-19T09:13:06;13.50;69.00
37446;DHT22;23307;51.136;14.942;2023-03-19T09:15:32;13.50;69.40
37446;DHT22;23307;51.136;14.942;2023-03-19T09:17:57;13.60;69.30
37446;DHT22;23307;51.136;14.942;2023-03-19T09:20:23;13.70;69.40
37446;DHT22;23307;51.136;14.942;2023-03-19T09:22:48;13.70;69.50
37446;DHT22;23307;51.136;14.942;2023-03-19T09:25:14;13.70;69.50
37446;DHT22;23307;51.136;14.942;2023-03-19T09:27:40;13.70;69.80
37446;DHT22;23307;51.136;14.942;2023-03-19T09:30:06;13.70;70.30
37446;DHT22;23307;51.136;14.942;2023-03-19T09:32:34;13.80;70.20
37446;DHT22;23307;51.136;14.942;2023-03-19T09:35:00;13.90;70.00
37446;DHT22;23307;51.136;14.942;2023-03-19T09:37:25;14.00;70.20
37446;DHT22;23307;51.136;14.942;2023-03-19T09:39:51;14.10;70.70
37446;DHT22;23307;51.136;14.942;2023-03-19T09:44:45;14.30;69.40
37446;DHT22;23307;51.136;14.942;2023-03-19T09:47:20;14.20;69.60
37446;DHT22;23307;51.136;14.942;2023-03-19T09:49:49;14.20;69.90
37446;DHT22;23307;51.136;14.942;2023-03-19T09:52:30;14.20;69.70
37446;DHT22;23307;51.136;14.942;2023-03-19T09:55:35;14.20;70.40
37446;DHT22;23307;51.136;14.942;2023-03-19T09:58:14;14.30;70.60
37446;DHT22;23307;51.136;14.942;2023-03-19T10:00:41;14.40;70.90
37446;DHT22;23307;51.136;14.942;2023-03-19T10:14:35;14.60;70.00
37446;DHT22;23307;51.136;14.942;2023-03-19T10:17:11;14.60;70.60
37446;DHT22;23307;51.136;14.942;2023-03-19T10:19:52;14.70;71.10
37446;DHT22;23307;51.136;14.942;2023-03-19T10:22:30;14.70;70.00
37446;DHT22;23307;51.136;14.942;2023-03-19T10:24:58;14.70;70.10
37446;DHT22;23307;51.136;14.942;2023-03-19T10:27:26;14.70;70.30
37446;DHT22;23307;51.136;14.942;2023-03-19T10:29:54;14.80;70.10
37446;DHT22;23307;51.136;14.942;2023-03-19T10:32:42;14.80;69.70
37446;DHT22;23307;51.136;14.942;2023-03-19T10:35:23;14.80;70.30
37446;DHT22;23307;51.136;14.942;2023-03-19T10:37:51;14.70;70.60
37446;DHT22;23307;51.136;14.942;2023-03-19T10:41:35;14.80;70.40
37446;DHT22;23307;51.136;14.942;2023-03-19T10:43:35;14.80;70.40
37446;DHT22;23307;51.136;14.942;2023-03-19T10:46:01;14.80;70.50
37446;DHT22;23307;51.136;14.942;2023-03-19T10:48:26;14.90;70.40
37446;DHT22;23307;51.136;14.942;2023-03-19T10:50:58;15.00;70.90
37446;DHT22;23307;51.136;14.942;2023-03-19T10:53:34;15.10;70.80
37446;DHT22;23307;51.136;14.942;2023-03-19T10:56:03;15.20;70.30
37446;DHT22;23307;51.136;14.942;2023-03-19T10:58:31;15.30;70.90
37446;DHT22;23307;51.136;14.942;2023-03-19T11:01:09;15.40;70.20
37446;DHT22;23307;51.136;14.942;2023-03-19T11:03:51;15.50;69.80
37446;DHT22;23307;51.136;14.942;2023-03-19T11:06:25;15.50;69.80
37446;DHT22;23307;51.136;14.942;2023-03-19T11:08:59;15.50;69.80
37446;DHT22;23307;51.136;14.942;2023-03-19T11:11:45;15.60;70.30
37446;DHT22;23307;51.136;14.942;2023-03-19T11:16:56;15.70;70.40
37446;DHT22;23307;51.136;14.942;2023-03-19T11:19:28;15.80;69.70
37446;DHT22;23307;51.136;14.942;2023-03-19T11:24:35;15.90;69.90
37446;DHT22;23307;51.136;14.942;2023-03-19T11:27:01;16.10;71.10
37446;DHT22;23307;51.136;14.942;2023-03-19T11:29:28;16.10;69.10
37446;DHT22;23307;51.136;14.942;2023-03-19T11:32:24;16.20;68.90
37446;DHT22;23307;51.136;14.942;2023-03-19T11:35:02;16.20;69.00
37446;DHT22;23307;51.136;14.942;2023-03-19T11:37:52;16.20;68.40
37446;DHT22;23307;51.136;14.942;2023-03-19T11:43:36;16.20;68.70
37446;DHT22;23307;51.136;14.942;2023-03-19T11:51:47;16.40;68.50
37446;DHT22;23307;51.136;14.942;2023-03-19T11:54:40;16.50;68.50
37446;DHT22;23307;51.136;14.942;2023-03-19T11:57:17;16.60;68.50
37446;DHT22;23307;51.136;14.942;2023-03-19T12:05:32;16.80;67.70
37446;DHT22;23307;51.136;14.942;2023-03-19T12:25:10;16.80;69.10
37446;DHT22;23307;51.136;14.942;2023-03-19T12:33:08;17.00;69.10
37446;DHT22;23307;51.136;14.942;2023-03-19T12:35:39;17.10;68.40
37446;DHT22;23307;51.136;14.942;2023-03-19T12:38:16;17.30;68.40
37446;DHT22;23307;51.136;14.942;2023-03-19T12:40:46;17.40;68.80
37446;DHT22;23307;51.136;14.942;2023-03-19T12:43:20;17.60;69.00
37446;DHT22;23307;51.136;14.942;2023-03-19T12:45:57;17.70;68.40
37446;DHT22;23307;51.136;14.942;2023-03-19T12:48:32;17.90;68.50
37446;DHT22;23307;51.136;14.942;2023-03-19T12:51:05;18.00;67.80
37446;DHT22;23307;51.136;14.942;2023-03-19T12:53:55;18.10;68.00
37446;DHT22;23307;51.136;14.942;2023-03-19T12:56:45;18.20;67.40
37446;DHT22;23307;51.136;14.942;2023-03-19T13:02:09;18.00;66.40
37446;DHT22;23307;51.136;14.942;2023-03-19T13:04:40;17.70;67.00
37446;DHT22;23307;51.136;14.942;2023-03-19T13:07:19;17.60;67.50
37446;DHT22;23307;51.136;14.942;2023-03-19T13:09:59;17.50;67.50
37446;DHT22;23307;51.136;14.942;2023-03-19T13:12:28;17.30;68.10
37446;DHT22;23307;51.136;14.942;2023-03-19T13:20:49;17.00;69.30
37446;DHT22;23307;51.136;14.942;2023-03-19T13:23:26;16.90;70.10
37446;DHT22;23307;51.136;14.942;2023-03-19T13:25:55;16.80;69.10
37446;DHT22;23307;51.136;14.942;2023-03-19T13:28:32;16.60;69.30
37446;DHT22;23307;51.136;14.942;2023-03-19T13:31:02;16.50;69.40
37446;DHT22;23307;51.136;14.942;2023-03-19T13:33:28;16.40;69.90
37446;DHT22;23307;51.136;14.942;2023-03-19T13:35:55;16.30;69.60
37446;DHT22;23307;51.136;14.942;2023-03-19T13:38:36;16.20;69.80
37446;DHT22;23307;51.136;14.942;2023-03-19T13:41:02;16.00;69.50
37446;DHT22;23307;51.136;14.942;2023-03-19T13:53:41;15.70;70.50
37446;DHT22;23307;51.136;14.942;2023-03-19T13:56:16;15.60;70.90
37446;DHT22;23307;51.136;14.942;2023-03-19T13:58:51;15.60;71.50
37446;DHT22;23307;51.136;14.942;2023-03-19T14:06:37;15.30;72.50
37446;DHT22;23307;51.136;14.942;2023-03-19T14:09:06;15.20;73.30
37446;DHT22;23307;51.136;14.942;2023-03-19T14:11:50;15.10;73.20
37446;DHT22;23307;51.136;14.942;2023-03-19T14:14:16;15.00;74.30
37446;DHT22;23307;51.136;14.942;2023-03-19T14:16:44;15.00;75.40
37446;DHT22;23307;51.136;14.942;2023-03-19T14:19:17;14.90;76.60
37446;DHT22;23307;51.136;14.942;2023-03-19T14:24:35;14.80;78.20
37446;DHT22;23307;51.136;14.942;2023-03-19T14:27:16;14.80;79.50
37446;DHT22;23307;51.136;14.942;2023-03-19T14:29:43;14.90;80.80
37446;DHT22;23307;51.136;14.942;2023-03-19T14:32:15;14.90;79.20
37446;DHT22;23307;51.136;14.942;2023-03-19T14:34:45;15.00;78.40
37446;DHT22;23307;51.136;14.942;2023-03-19T14:37:24;15.00;76.70
37446;DHT22;23307;51.136;14.942;2023-03-19T14:39:57;15.00;76.90
37446;DHT22;23307;51.136;14.942;2023-03-19T14:42:38;15.10;77.80
37446;DHT22;23307;51.136;14.942;2023-03-19T14:48:16;15.10;76.90
37446;DHT22;23307;51.136;14.942;2023-03-19T14:51:09;15.10;77.50
37446;DHT22;23307;51.136;14.942;2023-03-19T14:53:45;15.20;77.60
37446;DHT22;23307;51.136;14.942;2023-03-19T14:56:19;15.20;77.10
37446;DHT22;23307;51.136;14.942;2023-03-19T14:58:50;15.20;77.30
37446;DHT22;23307;51.136;14.942;2023-03-19T15:01:17;15.20;77.00
37446;DHT22;23307;51.136;14.942;2023-03-19T15:03:44;15.20;77.30
37446;DHT22;23307;51.136;14.942;2023-03-19T15:06:12;15.10;77.40
37446;DHT22;23307;51.136;14.942;2023-03-19T15:08:39;15.20;77.80
37446;DHT22;23307;51.136;14.942;2023-03-19T15:16:59;15.10;78.40
37446;DHT22;23307;51.136;14.942;2023-03-19T15:19:29;15.10;78.30
37446;DHT22;23307;51.136;14.942;2023-03-19T15:22:15;15.10;78.50
37446;DHT22;23307;51.136;14.942;2023-03-19T15:24:43;15.10;78.80
37446;DHT22;23307;51.136;14.942;2023-03-19T15:27:23;15.10;78.80
37446;DHT22;23307;51.136;14.942;2023-03-19T15:29:50;15.00;78.50
37446;DHT22;23307;51.136;14.942;2023-03-19T15:32:37;15.00;78.90
37446;DHT22;23307;51.136;14.942;2023-03-19T15:35:04;15.00;78.80
37446;DHT22;23307;51.136;14.942;2023-03-19T15:37:32;15.00;78.30
37446;DHT22;23307;51.136;14.942;2023-03-19T15:39:59;14.90;78.60
37446;DHT22;23307;51.136;14.942;2023-03-19T15:42:26;15.00;78.60
37446;DHT22;23307;51.136;14.942;2023-03-19T15:45:02;14.90;78.50
37446;DHT22;23307;51.136;14.942;2023-03-19T15:47:30;15.00;78.50
37446;DHT22;23307;51.136;14.942;2023-03-19T15:50:01;15.00;78.40
37446;DHT22;23307;51.136;14.942;2023-03-19T15:52:31;14.90;78.30
37446;DHT22;23307;51.136;14.942;2023-03-19T15:54:59;14.90;78.00
37446;DHT22;23307;51.136;14.942;2023-03-19T15:57:26;14.90;78.00
37446;DHT22;23307;51.136;14.942;2023-03-19T15:59:53;14.90;78.10
37446;DHT22;23307;51.136;14.942;2023-03-19T16:02:24;14.90;78.40
37446;DHT22;23307;51.136;14.942;2023-03-19T16:04:50;14.90;78.00
37446;DHT22;23307;51.136;14.942;2023-03-19T16:07:38;14.80;78.20
37446;DHT22;23307;51.136;14.942;2023-03-19T16:10:36;14.80;78.40
37446;DHT22;23307;51.136;14.942;2023-03-19T16:13:03;14.80;78.70
37446;DHT22;23307;51.136;14.942;2023-03-19T16:15:44;14.70;78.80
37446;DHT22;23307;51.136;14.942;2023-03-19T16:20:41;14.70;79.00
37446;DHT22;23307;51.136;14.942;2023-03-19T16:23:15;14.60;79.20
37446;DHT22;23307;51.136;14.942;2023-03-19T16:25:43;14.60;79.30
37446;DHT22;23307;51.136;14.942;2023-03-19T16:28:18;14.50;79.40
37446;DHT22;23307;51.136;14.942;2023-03-19T16:30:46;14.50;79.70
37446;DHT22;23307;51.136;14.942;2023-03-19T16:33:13;14.50;79.90
37446;DHT22;23307;51.136;14.942;2023-03-19T16:35:39;14.40;80.20
37446;DHT22;23307;51.136;14.942;2023-03-19T16:38:21;14.40;80.40
37446;DHT22;23307;51.136;14.942;2023-03-19T16:40:49;14.40;80.40
37446;DHT22;23307;51.136;14.942;2023-03-19T16:43:18;14.40;80.70
37446;DHT22;23307;51.136;14.942;2023-03-19T16:45:50;14.40;80.70
37446;DHT22;23307;51.136;14.942;2023-03-19T16:48:15;14.40;80.70
37446;DHT22;23307;51.136;14.942;2023-03-19T16:50:41;14.30;80.80
37446;DHT22;23307;51.136;14.942;2023-03-19T16:53:25;14.30;81.00
37446;DHT22;23307;51.136;14.942;2023-03-19T16:55:54;14.30;81.00
37446;DHT22;23307;51.136;14.942;2023-03-19T16:58:43;14.20;81.10
37446;DHT22;23307;51.136;14.942;2023-03-19T17:01:20;14.20;81.60
37446;DHT22;23307;51.136;14.942;2023-03-19T17:03:47;14.20;81.90
37446;DHT22;23307;51.136;14.942;2023-03-19T17:06:14;14.10;81.90